aviador You're here:

LFRZ Decoded Metar

ST.-NAZAIRE in FRANCE
Report Time2017-08-22 08:30:00
UTC Time2017-08-22 08:58:36
Flight Rules vfr VFR
Wind060° at 09 kt
W.Decomp.*RWY 08: 8.6 kt HW 2.8 kt LCW
W.Rank060° ranks 14
Current wind is above 060° avg. (6.8)
Visibility9999 m
Phenomena:N/A
Clouds:N/A
Expected CloudBase > 3,200 ft AGL from Temp-Dew spread
CeilingNone
Temp25°C (ISA +10)
Dew Point17°C (61% RH)
AAT24.1°C
QNH1016 hPa
Density Alt1,332 ft
Elevation13 ft
Report Wrong Elevation
Raw Report
LFRZ 220830Z AUTO 06009KT CAVOK 25/17 Q1016 NOSIG=

Extra information for LFRZ:More info

Metar Taf Metar & Taf Last 4 Metars F.Rules Stats Wind Profile Meteogram Temp Stats Airport Information Weather charts Add Link Nearby VenuesMetar ALERT Operation Metar Decoded Social comments